Time;durP1;ratioP1;P1;durP2;ratioP2;P2;SDS_P1;SDS_P2;PMS_P1;PMS_P2;Temp;Humidity;BMP_temperature;BMP_pressure;BME280_temperature;BME280_humidity;BME280_pressure;Samples;Min_cycle;Max_cycle;Signal;HPM_P1;HPM_P2
2024/01/06 15:20:45;;;;;;;1.30;1.20;;;;;;;6.66;61.35;90785.41;5121315;27;20715;-75
2024/01/06 15:23:10;;;;;;;1.20;1.10;;;;;;;6.66;63.59;90788.00;5086790;28;20035;-76
2024/01/06 15:25:36;;;;;;;1.10;1.00;;;;;;;6.71;61.10;90785.28;5106915;28;20483;-75
2024/01/06 15:28:03;;;;;;;3.53;1.90;;;;;;;6.72;61.38;90797.22;5105661;28;20123;-75
2024/01/06 15:30:28;;;;;;;2.20;1.48;;;;;;;6.77;63.84;90784.06;5104974;28;20028;-75
2024/01/06 15:32:54;;;;;;;1.20;1.10;;;;;;;6.77;63.30;90789.25;5086185;28;20483;-75
2024/01/06 15:35:19;;;;;;;0.85;0.85;;;;;;;6.79;60.54;90801.97;5106298;28;20089;-76
2024/01/06 15:37:47;;;;;;;0.98;0.73;;;;;;;6.83;61.51;90801.06;5105223;28;20104;-76
2024/01/06 15:40:13;;;;;;;0.93;0.90;;;;;;;6.76;63.38;90782.53;5104264;28;20063;-76
2024/01/06 15:42:40;;;;;;;0.88;0.82;;;;;;;6.65;63.97;90794.28;5104670;28;20063;-75
2024/01/06 15:45:06;;;;;;;1.48;1.23;;;;;;;6.68;63.76;90796.28;5104659;28;20063;-76
2024/01/06 15:47:32;;;;;;;3.65;2.30;;;;;;;6.62;63.00;90800.06;5103121;28;20063;-75
2024/01/06 15:49:58;;;;;;;2.15;1.60;;;;;;;6.61;62.71;90788.91;5094442;28;20032;-75
2024/01/06 15:52:24;;;;;;;4.80;3.00;;;;;;;6.54;62.17;90801.59;5059628;28;20038;-75
2024/01/06 15:54:49;;;;;;;7.57;6.00;;;;;;;6.58;60.22;90796.56;5103116;28;20032;-75
2024/01/06 15:57:15;;;;;;;1.90;1.25;;;;;;;6.50;62.02;90798.06;5105001;28;20032;-75
2024/01/06 15:59:40;;;;;;;3.20;1.90;;;;;;;6.50;61.59;90774.66;5095261;28;20049;-74
2024/01/06 16:02:06;;;;;;;1.45;1.20;;;;;;;6.63;56.87;90809.44;5104093;28;20564;-75
2024/01/06 16:04:31;;;;;;;4.28;2.97;;;;;;;6.60;60.79;90790.00;5104494;28;20182;-75
2024/01/06 16:06:57;;;;;;;1.38;1.10;;;;;;;6.55;60.65;90786.75;5103891;28;20118;-75
2024/01/06 16:09:26;;;;;;;5.60;4.10;;;;;;;6.50;60.90;90794.69;5081657;28;20028;-75
2024/01/06 16:11:52;;;;;;;1.50;1.20;;;;;;;6.66;57.88;90807.00;5075100;28;20036;-75
2024/01/06 16:14:18;;;;;;;4.00;2.35;;;;;;;6.61;57.43;90798.56;5103485;28;20046;-75
2024/01/06 16:16:44;;;;;;;4.13;2.00;;;;;;;6.58;59.47;90804.38;5104329;28;20522;-75
2024/01/06 16:19:09;;;;;;;2.42;1.50;;;;;;;6.55;58.56;90791.97;5096817;28;20097;-75
2024/01/06 16:21:35;;;;;;;1.83;1.13;;;;;;;6.44;60.18;90807.84;5082986;28;20047;-75
2024/01/06 16:24:02;;;;;;;2.72;1.77;;;;;;;6.45;59.15;90793.78;5080986;28;20534;-75
2024/01/06 16:26:28;;;;;;;2.13;1.42;;;;;;;6.45;57.61;90804.16;5080706;28;20503;-76
2024/01/06 16:28:53;;;;;;;4.40;2.25;;;;;;;6.57;58.45;90795.03;5082072;28;20123;-76
2024/01/06 16:31:19;;;;;;;2.88;1.80;;;;;;;6.45;57.58;90806.78;5071789;28;20118;-75
2024/01/06 16:33:45;;;;;;;1.42;1.10;;;;;;;6.52;56.79;90813.38;5081622;28;20024;-75
2024/01/06 16:36:12;;;;;;;4.18;2.50;;;;;;;6.43;56.95;90801.09;5066910;28;20056;-73
2024/01/06 16:38:37;;;;;;;2.28;1.55;;;;;;;6.36;58.37;90797.41;5068211;28;20131;-75
2024/01/06 16:41:04;;;;;;;5.28;3.53;;;;;;;6.52;58.11;90813.38;5054039;28;20134;-73
2024/01/06 16:43:37;;;;;;;3.50;2.22;;;;;;;6.47;57.26;90811.69;5084581;28;20046;-74
2024/01/06 16:46:05;;;;;;;2.83;1.80;;;;;;;6.37;59.04;90804.94;5071983;28;20047;-75
2024/01/06 16:48:31;;;;;;;2.92;1.73;;;;;;;6.27;59.61;90807.78;5085397;28;20427;-73
2024/01/06 16:50:57;;;;;;;51.53;28.15;;;;;;;6.22;60.75;90800.13;5076025;28;20115;-74
2024/01/06 16:53:23;;;;;;;5.38;3.03;;;;;;;6.22;59.62;90805.31;5090047;28;20455;-75
2024/01/06 16:55:48;;;;;;;1.27;0.98;;;;;;;6.27;56.00;90799.22;5089130;28;20040;-73
2024/01/06 16:58:14;;;;;;;4.30;3.30;;;;;;;6.29;57.23;90812.69;5087408;28;20034;-74
2024/01/06 17:00:39;;;;;;;4.40;2.95;;;;;;;6.35;58.65;90799.25;5052631;28;20659;-75
2024/01/06 17:03:05;;;;;;;1.98;1.40;;;;;;;6.25;57.38;90815.09;5089535;28;20102;-73
2024/01/06 17:05:30;;;;;;;3.45;1.83;;;;;;;6.17;57.43;90797.63;5090075;28;20535;-74
2024/01/06 17:07:56;;;;;;;1.20;1.10;;;;;;;6.23;56.10;90812.03;5087786;28;20040;-74
2024/01/06 17:10:21;;;;;;;0.85;0.85;;;;;;;6.32;55.97;90810.22;5087891;28;20032;-74
2024/01/06 17:12:47;;;;;;;1.98;1.35;;;;;;;6.25;56.97;90802.13;5089716;28;20483;-74
2024/01/06 17:15:13;;;;;;;3.28;1.65;;;;;;;6.20;57.45;90802.25;5086119;28;20480;-74
2024/01/06 17:17:41;;;;;;;1.40;1.27;;;;;;;6.16;57.31;90811.72;5089332;28;20078;-74
2024/01/06 17:20:07;;;;;;;5.28;2.33;;;;;;;6.12;59.13;90815.97;5086476;28;20055;-75
2024/01/06 17:22:33;;;;;;;2.10;1.27;;;;;;;6.26;55.20;90816.66;5085223;28;20036;-74
2024/01/06 17:24:59;;;;;;;5.55;2.83;;;;;;;6.17;57.79;90821.81;5088503;28;20036;-74
2024/01/06 17:27:25;;;;;;;2.50;1.50;;;;;;;6.18;55.99;90817.38;5083243;28;20333;-73
2024/01/06 17:29:52;;;;;;;2.33;1.50;;;;;;;6.27;55.83;90801.81;5090368;28;20536;-75
2024/01/06 17:32:18;;;;;;;4.40;2.53;;;;;;;6.13;56.41;90802.69;5062078;28;20089;-77
2024/01/06 17:34:44;;;;;;;4.97;2.67;;;;;;;6.10;58.27;90803.25;5089670;28;20100;-74
2024/01/06 17:37:10;;;;;;;2.90;1.60;;;;;;;6.03;60.94;90811.50;5071594;28;20103;-75
2024/01/06 17:39:36;;;;;;;4.10;2.10;;;;;;;5.97;58.93;90804.91;5089437;28;20525;-75
2024/01/06 17:42:02;;;;;;;4.35;1.98;;;;;;;5.95;57.29;90812.22;5085693;28;20032;-75
2024/01/06 17:44:29;;;;;;;2.67;1.40;;;;;;;6.04;56.40;90809.69;5088502;28;20036;-76
2024/01/06 17:46:55;;;;;;;3.80;2.00;;;;;;;6.06;57.53;90830.94;5086156;28;20459;-75
2024/01/06 17:49:21;;;;;;;2.88;1.80;;;;;;;6.05;55.75;90811.94;5089296;28;20036;-75
2024/01/06 17:51:47;;;;;;;1.13;1.02;;;;;;;5.96;55.54;90803.34;5084982;28;20070;-79
2024/01/06 17:54:13;;;;;;;1.10;1.00;;;;;;;6.05;54.58;90811.94;5089647;28;20517;-76
2024/01/06 17:56:39;;;;;;;1.27;1.05;;;;;;;5.98;55.92;90816.81;5067729;28;20028;-77
2024/01/06 17:59:05;;;;;;;2.40;1.42;;;;;;;6.30;54.27;90817.56;5084435;28;20043;-76
2024/01/06 18:01:31;;;;;;;2.67;1.50;;;;;;;6.16;54.83;90807.28;5066573;28;20506;-75
2024/01/06 18:03:57;;;;;;;1.20;1.10;;;;;;;6.12;54.77;90802.97;5090273;28;20407;-74
2024/01/06 18:06:24;;;;;;;1.73;1.30;;;;;;;6.01;55.02;90821.44;5087983;28;20077;-75
2024/01/06 18:08:49;;;;;;;1.58;1.15;;;;;;;6.05;53.33;90796.38;5087928;28;20036;-75
2024/01/06 18:11:15;;;;;;;2.60;1.50;;;;;;;5.98;54.33;90816.81;5087846;28;20055;-74
2024/01/06 18:13:40;;;;;;;2.50;1.65;;;;;;;5.96;55.73;90821.53;5089005;28;20042;-74
2024/01/06 18:16:06;;;;;;;1.52;1.10;;;;;;;5.91;55.33;90811.25;5087124;28;20441;-75
2024/01/06 18:18:32;;;;;;;1.10;1.00;;;;;;;5.94;53.01;90799.50;5087676;28;20043;-74
2024/01/06 18:20:57;;;;;;;3.22;1.98;;;;;;;5.91;54.50;90826.84;5085905;28;20068;-75
2024/01/06 18:23:23;;;;;;;1.15;1.02;;;;;;;5.91;53.48;90821.63;5085263;28;20052;-75
2024/01/06 18:25:48;;;;;;;4.93;2.65;;;;;;;6.10;51.27;90826.66;5069203;28;20075;-75
2024/01/06 18:28:14;;;;;;;2.97;1.88;;;;;;;5.97;52.73;90822.31;5067942;28;20532;-74
2024/01/06 18:30:40;;;;;;;2.63;1.50;;;;;;;5.86;54.11;90818.41;5087587;28;20028;-75
2024/01/06 18:33:05;;;;;;;4.68;2.33;;;;;;;5.82;53.26;90823.44;5069870;28;20043;-77
2024/01/06 18:35:31;;;;;;;4.65;2.05;;;;;;;5.90;53.06;90820.13;5068257;28;20050;-75
2024/01/06 18:37:56;;;;;;;5.72;2.38;;;;;;;5.82;54.28;90824.19;5084309;28;20037;-75
2024/01/06 18:40:22;;;;;;;1.67;1.35;;;;;;;5.97;52.52;90815.28;5084617;28;20032;-75
2024/01/06 18:42:48;;;;;;;4.35;2.10;;;;;;;5.96;53.97;90813.75;5069410;28;20042;-76
2024/01/06 18:45:13;;;;;;;1.98;1.23;;;;;;;6.07;51.30;90816.09;5083811;28;20044;-75
2024/01/06 18:47:41;;;;;;;1.50;1.15;;;;;;;5.88;53.17;90811.06;5075415;28;20090;-75
2024/01/06 18:50:08;;;;;;;1.50;1.30;;;;;;;5.78;53.15;90793.91;5084839;28;20028;-75
2024/01/06 18:52:33;;;;;;;1.55;1.27;;;;;;;5.72;54.74;90810.69;5079041;28;20043;-74
2024/01/06 18:54:59;;;;;;;1.20;1.10;;;;;;;5.78;53.77;90807.66;5081392;28;20032;-74
2024/01/06 18:57:25;;;;;;;1.73;1.30;;;;;;;5.71;54.95;90809.91;5066167;28;20036;-75
2024/01/06 18:59:50;;;;;;;3.55;1.83;;;;;;;5.71;53.56;90811.75;5083042;28;20067;-74
2024/01/06 19:02:16;;;;;;;2.05;1.33;;;;;;;5.71;53.64;90802.13;5087165;28;20036;-74
2024/01/06 19:04:43;;;;;;;1.48;1.20;;;;;;;5.74;52.14;90805.97;5083471;28;20063;-75
2024/01/06 19:07:10;;;;;;;1.70;1.20;;;;;;;5.82;51.58;90802.66;5076123;28;20035;-74
2024/01/06 19:09:36;;;;;;;2.08;1.35;;;;;;;5.91;50.23;90798.28;5084817;28;20032;-75
2024/01/06 19:12:02;;;;;;;2.13;1.52;;;;;;;5.87;51.85;90820.69;5061389;28;20040;-74
2024/01/06 19:14:28;;;;;;;2.17;1.50;;;;;;;5.74;52.85;90806.75;5078010;28;20089;-74
2024/01/06 19:16:54;;;;;;;4.45;2.08;;;;;;;5.75;49.47;90810.09;5088806;28;20040;-74
2024/01/06 19:19:19;;;;;;;2.58;1.50;;;;;;;5.72;52.16;90802.88;5086474;28;20101;-75
2024/01/06 19:21:45;;;;;;;3.17;1.83;;;;;;;5.66;51.99;90823.03;5068747;28;20119;-76
2024/01/06 19:24:11;;;;;;;3.08;1.70;;;;;;;5.57;54.02;90828.16;5082024;28;20028;-75
2024/01/06 19:26:40;;;;;;;1.33;1.05;;;;;;;5.58;52.29;90798.56;5087204;28;20047;-75
2024/01/06 19:29:05;;;;;;;1.10;1.00;;;;;;;5.60;52.90;90811.22;5065492;28;20032;-76
2024/01/06 19:31:31;;;;;;;0.90;0.90;;;;;;;5.56;50.96;90815.47;5065812;28;20509;-75
2024/01/06 19:33:56;;;;;;;2.15;1.35;;;;;;;5.72;49.56;90810.69;5085978;28;20024;-75
2024/01/06 19:36:22;;;;;;;1.70;1.30;;;;;;;5.49;51.57;90792.53;5069506;28;20046;-75
2024/01/06 19:38:48;;;;;;;1.00;1.00;;;;;;;5.57;50.08;90822.22;5067311;28;20327;-75
2024/01/06 19:41:14;;;;;;;1.02;0.98;;;;;;;5.54;51.06;90813.19;5082666;28;20032;-75
2024/01/06 19:43:40;;;;;;;2.25;1.50;;;;;;;5.58;50.38;90816.72;5069691;28;20028;-75
2024/01/06 19:46:07;;;;;;;1.20;0.98;;;;;;;5.56;48.82;90792.09;5092200;28;20490;-75
2024/01/06 19:48:33;;;;;;;2.00;1.25;;;;;;;5.53;50.23;90806.44;5085395;28;20063;-75
2024/01/06 19:50:58;;;;;;;1.25;1.10;;;;;;;5.42;51.17;90795.53;5082225;28;20060;-75
2024/01/06 19:53:24;;;;;;;1.30;1.00;;;;;;;5.40;51.33;90791.69;5086664;28;20105;-75
2024/01/06 19:55:50;;;;;;;2.28;1.30;;;;;;;5.44;49.87;90790.06;5067779;28;20047;-75
2024/01/06 19:58:15;;;;;;;1.13;1.02;;;;;;;5.42;49.86;90789.59;5067009;28;20062;-75
2024/01/06 20:00:41;;;;;;;1.17;0.93;;;;;;;5.41;52.71;90788.06;5068072;28;20031;-75
2024/01/06 20:03:06;;;;;;;1.02;1.00;;;;;;;5.52;48.93;90786.75;5089061;28;20146;-75
2024/01/06 20:05:32;;;;;;;2.08;1.40;;;;;;;5.47;50.66;90786.09;5084275;28;20044;-75
2024/01/06 20:07:58;;;;;;;1.80;1.40;;;;;;;5.36;50.10;90788.94;5085817;28;20036;-75
2024/01/06 20:10:24;;;;;;;1.83;1.20;;;;;;;5.49;48.20;90789.94;5089495;28;20028;-75
2024/01/06 20:12:50;;;;;;;3.67;1.98;;;;;;;5.43;50.27;90785.94;5070021;28;20429;-75
2024/01/06 20:15:16;;;;;;;2.42;1.40;;;;;;;5.35;50.84;90787.41;5094770;28;20040;-75
2024/01/06 20:17:41;;;;;;;2.55;1.48;;;;;;;5.29;50.73;90793.78;5090341;28;20055;-76
2024/01/06 20:20:10;;;;;;;3.63;1.60;;;;;;;5.23;50.81;90789.75;5088098;28;20033;-76
2024/01/06 20:22:35;;;;;;;2.67;1.50;;;;;;;5.17;51.24;90788.34;5083051;28;20036;-76
2024/01/06 20:25:01;;;;;;;4.72;2.78;;;;;;;5.36;48.88;90801.91;5080036;28;20042;-75
2024/01/06 20:27:27;;;;;;;0.82;0.82;;;;;;;5.32;49.63;90792.44;5090399;28;20527;-75
2024/01/06 20:29:53;;;;;;;2.00;1.38;;;;;;;5.19;49.41;90802.53;5088513;28;20515;-76
2024/01/06 20:32:21;;;;;;;1.02;0.90;;;;;;;5.24;49.95;90806.09;5084177;28;20518;-76
2024/01/06 20:34:47;;;;;;;1.00;0.90;;;;;;;5.25;49.64;90805.81;5082691;28;20042;-75
2024/01/06 20:37:13;;;;;;;0.90;0.90;;;;;;;5.21;50.15;90792.66;5085906;28;20036;-76
2024/01/06 20:39:39;;;;;;;4.32;2.03;;;;;;;5.19;51.12;90792.16;5089936;28;20103;-76
2024/01/06 20:42:04;;;;;;;3.78;1.50;;;;;;;5.07;50.11;90796.38;5089229;28;20111;-76
2024/01/06 20:44:31;;;;;;;1.15;1.05;;;;;;;5.08;49.91;90785.69;5086200;28;20825;-76
2024/01/06 20:46:56;;;;;;;2.90;1.50;;;;;;;5.08;50.43;90803.84;5068771;28;20036;-76
2024/01/06 20:49:23;;;;;;;1.65;1.10;;;;;;;5.10;50.73;90798.38;5071792;28;20044;-75
2024/01/06 20:51:52;;;;;;;1.20;1.10;;;;;;;5.03;50.36;90788.38;5071827;28;20367;-75
2024/01/06 20:54:18;;;;;;;1.25;1.10;;;;;;;5.01;50.25;90798.28;5069782;28;20499;-75
2024/01/06 20:56:44;;;;;;;1.17;1.02;;;;;;;5.08;48.94;90803.84;5069816;28;20123;-76
2024/01/06 20:59:09;;;;;;;0.90;0.90;;;;;;;5.10;49.96;90788.75;5089929;28;20032;-75
2024/01/06 21:01:35;;;;;;;2.72;1.23;;;;;;;5.21;47.68;90792.66;5079992;28;20388;-75
2024/01/06 21:04:01;;;;;;;1.23;1.00;;;;;;;5.19;49.37;90776.59;5091058;28;20051;-76
2024/01/06 21:06:27;;;;;;;1.27;1.15;;;;;;;5.15;47.86;90791.22;5086109;28;20035;-75
2024/01/06 21:08:52;;;;;;;1.40;1.10;;;;;;;5.24;47.94;90780.91;5068894;28;20036;-75
2024/01/06 21:11:18;;;;;;;7.22;2.67;;;;;;;5.25;47.50;90805.03;5088195;28;20308;-75
2024/01/06 21:13:43;;;;;;;1.27;1.17;;;;;;;5.08;49.25;90788.28;5088315;28;20156;-76
2024/01/06 21:16:09;;;;;;;0.85;0.85;;;;;;;5.16;48.02;90771.25;5087726;28;20550;-75
2024/01/06 21:18:39;;;;;;;1.65;1.10;;;;;;;5.11;48.72;90787.69;5050400;28;20051;-75
2024/01/06 21:21:04;;;;;;;1.15;1.02;;;;;;;5.07;50.53;90791.94;5070201;28;20588;-75
2024/01/06 21:23:30;;;;;;;1.90;1.20;;;;;;;5.14;46.92;90779.31;5054152;28;20113;-75
2024/01/06 21:25:56;;;;;;;2.50;1.50;;;;;;;5.27;46.69;90787.34;5087857;28;20050;-74
2024/01/06 21:28:22;;;;;;;2.10;1.30;;;;;;;5.26;47.26;90786.56;5088767;28;20490;-75
2024/01/06 21:30:49;;;;;;;1.88;1.20;;;;;;;5.24;48.20;90790.53;5086191;28;20130;-75
2024/01/06 21:33:17;;;;;;;6.63;2.50;;;;;;;5.26;46.11;90794.34;5085311;28;20026;-75
2024/01/06 21:35:43;;;;;;;1.33;1.10;;;;;;;5.48;45.78;90782.47;5089479;28;20449;-74
2024/01/06 21:38:12;;;;;;;0.88;0.88;;;;;;;5.26;48.38;90799.53;5089226;28;20024;-75
2024/01/06 21:40:42;;;;;;;1.25;1.10;;;;;;;5.39;45.36;90790.94;5070041;28;20063;-75
2024/01/06 21:43:07;;;;;;;0.98;0.93;;;;;;;5.34;46.92;90777.34;5088882;28;20043;-75
2024/01/06 21:45:33;;;;;;;0.90;0.90;;;;;;;5.19;47.37;90775.84;5061886;28;20035;-74
2024/01/06 21:47:59;;;;;;;0.98;0.90;;;;;;;5.31;46.61;90794.22;5069749;28;20158;-74
2024/01/06 21:50:25;;;;;;;0.80;0.80;;;;;;;5.32;46.89;90798.38;5087294;28;20130;-75
2024/01/06 21:52:50;;;;;;;2.30;1.42;;;;;;;5.27;46.04;90788.13;5087975;28;20035;-75
2024/01/06 21:55:17;;;;;;;2.83;1.42;;;;;;;5.42;44.94;90808.50;5088302;28;20032;-75
2024/01/06 21:57:43;;;;;;;1.08;0.98;;;;;;;5.40;45.76;90792.50;5087760;28;20036;-75
2024/01/06 22:00:15;;;;;;;2.20;1.27;;;;;;;5.48;45.25;90788.41;5088480;28;20020;-75
2024/01/06 22:02:41;;;;;;;;;;;;;;;5.38;46.52;90793.81;5070150;28;20063;-75
2024/01/06 22:05:07;;;;;;;1.00;0.98;;;;;;;5.43;45.12;90797.06;5084260;28;20364;-74
2024/01/06 22:07:33;;;;;;;0.90;0.90;;;;;;;5.40;44.70;90802.09;5083101;28;20068;-75
2024/01/06 22:09:59;;;;;;;3.47;1.75;;;;;;;5.41;44.55;90808.81;5086218;28;20491;-76
2024/01/06 22:12:25;;;;;;;0.80;0.80;;;;;;;5.43;45.49;90802.28;5088234;28;20131;-77
